Avoca, Illinois
Current Conditions -  °F | °C
As of 9:15 AM on Monday 24 Nov 2014 (Local Time) from KPNT Reporting Station
Light Snow Light Snow  
Wind Chill: 21°   Ceiling: 700
Heat Index: 33°   Visibility: 1.2mi
Dew Point: 32°   Wind: 24mph
Humidity: 96%   Direction: 260°W
Pressure: 29.34"   Gusts: 36mph
Location:  40.7318°N, 88.524°W
Report Text: KPNT 241515Z AUTO 26021G31KT 1 1/4SM -SN OVC007 01/00 A2934 RMK AO2 T00070002
Loading
Personal Weather Stations






























Interactive Weather Map New forecast layout! Learn more

10-Day Weather Forecast

Advertisements
Track Severe Weather on mobile